sensor_id;sensor_type;location;lat;lon;timestamp;P1;durP1;ratioP1;P2;durP2;ratioP2
21392;SDS011;10857;52.228;21.026;2023-05-14T00:02:03;17.27;;;10.15;;
21392;SDS011;10857;52.228;21.026;2023-05-14T00:04:30;16.80;;;9.93;;
21392;SDS011;10857;52.228;21.026;2023-05-14T00:06:58;16.40;;;10.00;;
21392;SDS011;10857;52.228;21.026;2023-05-14T00:09:26;12.95;;;9.50;;
21392;SDS011;10857;52.228;21.026;2023-05-14T00:11:56;16.92;;;9.63;;
21392;SDS011;10857;52.228;21.026;2023-05-14T00:14:23;14.57;;;10.07;;
21392;SDS011;10857;52.228;21.026;2023-05-14T00:16:51;16.42;;;10.52;;
21392;SDS011;10857;52.228;21.026;2023-05-14T00:19:18;16.00;;;10.35;;
21392;SDS011;10857;52.228;21.026;2023-05-14T00:21:45;15.38;;;10.02;;
21392;SDS011;10857;52.228;21.026;2023-05-14T00:24:13;16.08;;;10.73;;
21392;SDS011;10857;52.228;21.026;2023-05-14T00:26:40;15.30;;;10.90;;
21392;SDS011;10857;52.228;21.026;2023-05-14T00:29:07;17.80;;;11.05;;
21392;SDS011;10857;52.228;21.026;2023-05-14T00:31:35;18.23;;;11.68;;
21392;SDS011;10857;52.228;21.026;2023-05-14T00:34:04;18.45;;;11.45;;
21392;SDS011;10857;52.228;21.026;2023-05-14T00:36:31;16.73;;;10.77;;
21392;SDS011;10857;52.228;21.026;2023-05-14T00:38:59;15.02;;;11.02;;
21392;SDS011;10857;52.228;21.026;2023-05-14T00:41:29;19.30;;;12.00;;
21392;SDS011;10857;52.228;21.026;2023-05-14T00:43:57;16.58;;;11.55;;
21392;SDS011;10857;52.228;21.026;2023-05-14T00:46:25;17.55;;;11.20;;
21392;SDS011;10857;52.228;21.026;2023-05-14T00:48:52;20.63;;;12.32;;
21392;SDS011;10857;52.228;21.026;2023-05-14T00:51:19;16.95;;;12.20;;
21392;SDS011;10857;52.228;21.026;2023-05-14T00:53:47;17.50;;;11.90;;
21392;SDS011;10857;52.228;21.026;2023-05-14T00:56:14;17.92;;;13.13;;
21392;SDS011;10857;52.228;21.026;2023-05-14T00:58:41;19.88;;;12.80;;
21392;SDS011;10857;52.228;21.026;2023-05-14T01:01:08;19.73;;;13.13;;
21392;SDS011;10857;52.228;21.026;2023-05-14T01:03:37;18.88;;;13.48;;
21392;SDS011;10857;52.228;21.026;2023-05-14T01:06:17;19.15;;;12.60;;
21392;SDS011;10857;52.228;21.026;2023-05-14T01:11:54;18.25;;;12.80;;
21392;SDS011;10857;52.228;21.026;2023-05-14T01:14:51;19.63;;;12.75;;
21392;SDS011;10857;52.228;21.026;2023-05-14T01:17:13;20.80;;;12.82;;
21392;SDS011;10857;52.228;21.026;2023-05-14T01:19:45;22.73;;;14.02;;
21392;SDS011;10857;52.228;21.026;2023-05-14T01:22:14;24.25;;;13.50;;
21392;SDS011;10857;52.228;21.026;2023-05-14T01:24:42;22.77;;;13.95;;
21392;SDS011;10857;52.228;21.026;2023-05-14T01:27:17;23.25;;;14.23;;
21392;SDS011;10857;52.228;21.026;2023-05-14T01:29:52;24.75;;;14.98;;
21392;SDS011;10857;52.228;21.026;2023-05-14T01:32:23;19.77;;;14.55;;
21392;SDS011;10857;52.228;21.026;2023-05-14T01:34:52;26.35;;;15.38;;
21392;SDS011;10857;52.228;21.026;2023-05-14T01:37:21;22.23;;;15.60;;
21392;SDS011;10857;52.228;21.026;2023-05-14T01:39:51;23.17;;;15.48;;
21392;SDS011;10857;52.228;21.026;2023-05-14T01:42:21;22.55;;;15.00;;
21392;SDS011;10857;52.228;21.026;2023-05-14T01:44:49;25.27;;;16.20;;
21392;SDS011;10857;52.228;21.026;2023-05-14T01:47:19;24.13;;;15.82;;
21392;SDS011;10857;52.228;21.026;2023-05-14T01:49:47;22.45;;;15.57;;
21392;SDS011;10857;52.228;21.026;2023-05-14T01:52:15;23.98;;;15.98;;
21392;SDS011;10857;52.228;21.026;2023-05-14T01:54:47;23.60;;;15.98;;
21392;SDS011;10857;52.228;21.026;2023-05-14T01:57:15;23.20;;;15.70;;
21392;SDS011;10857;52.228;21.026;2023-05-14T01:59:44;23.90;;;15.43;;
21392;SDS011;10857;52.228;21.026;2023-05-14T02:02:12;20.48;;;15.65;;
21392;SDS011;10857;52.228;21.026;2023-05-14T02:04:40;22.38;;;15.45;;
21392;SDS011;10857;52.228;21.026;2023-05-14T02:07:07;22.17;;;15.50;;
21392;SDS011;10857;52.228;21.026;2023-05-14T02:09:35;23.58;;;15.70;;
21392;SDS011;10857;52.228;21.026;2023-05-14T02:12:05;22.70;;;15.43;;
21392;SDS011;10857;52.228;21.026;2023-05-14T02:14:33;24.75;;;15.88;;
21392;SDS011;10857;52.228;21.026;2023-05-14T02:17:03;24.15;;;15.85;;
21392;SDS011;10857;52.228;21.026;2023-05-14T02:19:31;24.60;;;16.45;;
21392;SDS011;10857;52.228;21.026;2023-05-14T02:21:58;24.38;;;15.27;;
21392;SDS011;10857;52.228;21.026;2023-05-14T02:24:29;23.90;;;16.35;;
21392;SDS011;10857;52.228;21.026;2023-05-14T02:26:56;21.10;;;16.10;;
21392;SDS011;10857;52.228;21.026;2023-05-14T02:29:27;21.35;;;15.93;;
21392;SDS011;10857;52.228;21.026;2023-05-14T02:31:55;26.42;;;16.70;;
21392;SDS011;10857;52.228;21.026;2023-05-14T02:34:22;21.67;;;16.08;;
21392;SDS011;10857;52.228;21.026;2023-05-14T02:36:50;23.20;;;15.93;;
21392;SDS011;10857;52.228;21.026;2023-05-14T02:39:17;25.40;;;16.40;;
21392;SDS011;10857;52.228;21.026;2023-05-14T02:41:44;26.27;;;16.38;;
21392;SDS011;10857;52.228;21.026;2023-05-14T02:44:15;25.35;;;17.52;;
21392;SDS011;10857;52.228;21.026;2023-05-14T02:46:44;23.63;;;16.75;;
21392;SDS011;10857;52.228;21.026;2023-05-14T02:49:12;23.00;;;16.30;;
21392;SDS011;10857;52.228;21.026;2023-05-14T02:51:39;24.40;;;16.48;;
21392;SDS011;10857;52.228;21.026;2023-05-14T02:54:09;26.83;;;18.35;;
21392;SDS011;10857;52.228;21.026;2023-05-14T02:56:38;25.58;;;17.15;;
21392;SDS011;10857;52.228;21.026;2023-05-14T02:59:05;24.58;;;17.83;;
21392;SDS011;10857;52.228;21.026;2023-05-14T03:01:33;26.17;;;18.42;;
21392;SDS011;10857;52.228;21.026;2023-05-14T03:04:01;24.23;;;17.17;;
21392;SDS011;10857;52.228;21.026;2023-05-14T03:06:28;26.95;;;17.67;;
21392;SDS011;10857;52.228;21.026;2023-05-14T03:08:56;24.33;;;17.27;;
21392;SDS011;10857;52.228;21.026;2023-05-14T03:11:24;24.20;;;17.08;;
21392;SDS011;10857;52.228;21.026;2023-05-14T03:13:51;26.08;;;16.95;;
21392;SDS011;10857;52.228;21.026;2023-05-14T03:16:19;25.98;;;17.23;;
21392;SDS011;10857;52.228;21.026;2023-05-14T03:19:03;25.02;;;17.50;;
21392;SDS011;10857;52.228;21.026;2023-05-14T03:21:32;22.77;;;16.20;;
21392;SDS011;10857;52.228;21.026;2023-05-14T03:23:59;19.90;;;15.85;;
21392;SDS011;10857;52.228;21.026;2023-05-14T03:26:30;22.38;;;15.90;;
21392;SDS011;10857;52.228;21.026;2023-05-14T03:32:10;20.75;;;14.70;;
21392;SDS011;10857;52.228;21.026;2023-05-14T03:34:37;21.98;;;14.43;;
21392;SDS011;10857;52.228;21.026;2023-05-14T03:37:05;19.27;;;14.40;;
21392;SDS011;10857;52.228;21.026;2023-05-14T03:39:44;20.88;;;14.77;;
21392;SDS011;10857;52.228;21.026;2023-05-14T03:42:11;22.48;;;15.85;;
21392;SDS011;10857;52.228;21.026;2023-05-14T03:44:38;23.25;;;15.00;;
21392;SDS011;10857;52.228;21.026;2023-05-14T03:47:06;22.58;;;15.35;;
21392;SDS011;10857;52.228;21.026;2023-05-14T03:49:33;22.80;;;15.48;;
21392;SDS011;10857;52.228;21.026;2023-05-14T03:52:01;22.98;;;15.48;;
21392;SDS011;10857;52.228;21.026;2023-05-14T03:54:28;21.45;;;15.20;;
21392;SDS011;10857;52.228;21.026;2023-05-14T03:56:58;23.30;;;15.75;;
21392;SDS011;10857;52.228;21.026;2023-05-14T03:59:27;21.65;;;15.68;;
21392;SDS011;10857;52.228;21.026;2023-05-14T04:01:56;22.92;;;16.08;;
21392;SDS011;10857;52.228;21.026;2023-05-14T04:04:24;23.25;;;16.02;;
21392;SDS011;10857;52.228;21.026;2023-05-14T04:06:54;25.13;;;16.40;;
21392;SDS011;10857;52.228;21.026;2023-05-14T04:09:22;23.63;;;16.42;;
21392;SDS011;10857;52.228;21.026;2023-05-14T04:11:51;23.42;;;16.52;;
21392;SDS011;10857;52.228;21.026;2023-05-14T04:14:18;22.70;;;16.65;;
21392;SDS011;10857;52.228;21.026;2023-05-14T04:16:46;24.90;;;16.52;;
21392;SDS011;10857;52.228;21.026;2023-05-14T04:19:14;22.42;;;15.73;;
21392;SDS011;10857;52.228;21.026;2023-05-14T04:21:42;22.70;;;15.63;;
21392;SDS011;10857;52.228;21.026;2023-05-14T04:24:10;22.63;;;15.82;;
21392;SDS011;10857;52.228;21.026;2023-05-14T04:26:39;20.63;;;15.23;;
21392;SDS011;10857;52.228;21.026;2023-05-14T04:29:07;21.85;;;14.80;;
21392;SDS011;10857;52.228;21.026;2023-05-14T04:31:35;21.85;;;14.45;;
21392;SDS011;10857;52.228;21.026;2023-05-14T04:34:02;21.25;;;14.82;;
21392;SDS011;10857;52.228;21.026;2023-05-14T04:36:37;21.52;;;14.57;;
21392;SDS011;10857;52.228;21.026;2023-05-14T04:39:06;23.35;;;15.00;;
21392;SDS011;10857;52.228;21.026;2023-05-14T04:41:34;22.42;;;15.15;;
21392;SDS011;10857;52.228;21.026;2023-05-14T04:44:02;22.25;;;14.98;;
21392;SDS011;10857;52.228;21.026;2023-05-14T04:46:31;24.42;;;15.43;;
21392;SDS011;10857;52.228;21.026;2023-05-14T04:48:59;21.52;;;14.85;;
21392;SDS011;10857;52.228;21.026;2023-05-14T04:51:28;21.42;;;14.13;;
21392;SDS011;10857;52.228;21.026;2023-05-14T04:53:55;26.35;;;14.75;;
21392;SDS011;10857;52.228;21.026;2023-05-14T04:56:29;23.15;;;14.50;;
21392;SDS011;10857;52.228;21.026;2023-05-14T04:58:56;19.65;;;13.75;;
21392;SDS011;10857;52.228;21.026;2023-05-14T05:01:24;21.58;;;13.98;;
21392;SDS011;10857;52.228;21.026;2023-05-14T05:03:51;21.13;;;14.30;;
21392;SDS011;10857;52.228;21.026;2023-05-14T05:06:19;19.20;;;13.05;;
21392;SDS011;10857;52.228;21.026;2023-05-14T05:08:48;18.52;;;13.20;;
21392;SDS011;10857;52.228;21.026;2023-05-14T05:11:16;19.10;;;13.93;;
21392;SDS011;10857;52.228;21.026;2023-05-14T05:13:44;21.20;;;13.82;;
21392;SDS011;10857;52.228;21.026;2023-05-14T05:16:14;20.13;;;13.82;;
21392;SDS011;10857;52.228;21.026;2023-05-14T05:18:47;23.05;;;13.52;;
21392;SDS011;10857;52.228;21.026;2023-05-14T05:21:14;19.35;;;13.65;;
21392;SDS011;10857;52.228;21.026;2023-05-14T05:23:41;18.80;;;13.25;;
21392;SDS011;10857;52.228;21.026;2023-05-14T05:26:09;21.05;;;13.68;;
21392;SDS011;10857;52.228;21.026;2023-05-14T05:28:36;22.75;;;13.50;;
21392;SDS011;10857;52.228;21.026;2023-05-14T05:31:04;19.25;;;12.30;;
21392;SDS011;10857;52.228;21.026;2023-05-14T05:33:31;19.80;;;13.15;;
21392;SDS011;10857;52.228;21.026;2023-05-14T05:36:06;21.90;;;12.75;;
21392;SDS011;10857;52.228;21.026;2023-05-14T05:38:37;20.67;;;13.57;;
21392;SDS011;10857;52.228;21.026;2023-05-14T05:41:12;20.17;;;12.95;;
21392;SDS011;10857;52.228;21.026;2023-05-14T05:43:45;18.52;;;12.98;;
21392;SDS011;10857;52.228;21.026;2023-05-14T05:46:22;17.80;;;12.90;;
21392;SDS011;10857;52.228;21.026;2023-05-14T05:49:11;20.48;;;13.30;;
21392;SDS011;10857;52.228;21.026;2023-05-14T05:51:56;20.83;;;13.55;;
21392;SDS011;10857;52.228;21.026;2023-05-14T05:54:24;21.35;;;13.55;;
21392;SDS011;10857;52.228;21.026;2023-05-14T05:56:56;20.05;;;12.77;;
21392;SDS011;10857;52.228;21.026;2023-05-14T05:59:23;20.02;;;12.95;;
21392;SDS011;10857;52.228;21.026;2023-05-14T06:01:51;17.77;;;12.38;;
21392;SDS011;10857;52.228;21.026;2023-05-14T06:04:18;17.40;;;12.30;;
21392;SDS011;10857;52.228;21.026;2023-05-14T06:06:46;17.98;;;12.07;;
21392;SDS011;10857;52.228;21.026;2023-05-14T06:09:13;15.07;;;11.65;;
21392;SDS011;10857;52.228;21.026;2023-05-14T06:11:41;18.33;;;11.40;;
21392;SDS011;10857;52.228;21.026;2023-05-14T06:14:08;18.33;;;11.82;;
21392;SDS011;10857;52.228;21.026;2023-05-14T06:16:36;22.00;;;11.75;;
21392;SDS011;10857;52.228;21.026;2023-05-14T06:19:03;17.42;;;11.63;;
21392;SDS011;10857;52.228;21.026;2023-05-14T06:21:31;17.67;;;10.85;;
21392;SDS011;10857;52.228;21.026;2023-05-14T06:23:59;16.38;;;11.35;;
21392;SDS011;10857;52.228;21.026;2023-05-14T06:26:26;16.67;;;11.38;;
21392;SDS011;10857;52.228;21.026;2023-05-14T06:28:54;17.88;;;11.95;;
21392;SDS011;10857;52.228;21.026;2023-05-14T06:31:22;15.30;;;11.30;;
21392;SDS011;10857;52.228;21.026;2023-05-14T06:33:49;17.30;;;11.32;;
21392;SDS011;10857;52.228;21.026;2023-05-14T06:36:20;17.23;;;10.85;;
21392;SDS011;10857;52.228;21.026;2023-05-14T06:38:51;20.33;;;10.55;;
21392;SDS011;10857;52.228;21.026;2023-05-14T06:41:19;14.25;;;10.55;;
21392;SDS011;10857;52.228;21.026;2023-05-14T06:43:47;19.80;;;10.52;;
21392;SDS011;10857;52.228;21.026;2023-05-14T06:46:17;16.15;;;10.77;;
21392;SDS011;10857;52.228;21.026;2023-05-14T06:48:45;14.02;;;10.45;;
21392;SDS011;10857;52.228;21.026;2023-05-14T06:51:12;16.95;;;9.77;;
21392;SDS011;10857;52.228;21.026;2023-05-14T06:53:40;13.40;;;9.73;;
21392;SDS011;10857;52.228;21.026;2023-05-14T06:56:07;15.30;;;9.85;;
21392;SDS011;10857;52.228;21.026;2023-05-14T06:58:35;13.82;;;9.82;;
21392;SDS011;10857;52.228;21.026;2023-05-14T07:04:03;14.75;;;9.88;;
21392;SDS011;10857;52.228;21.026;2023-05-14T07:06:30;15.25;;;8.93;;
21392;SDS011;10857;52.228;21.026;2023-05-14T07:08:58;13.60;;;9.30;;
21392;SDS011;10857;52.228;21.026;2023-05-14T07:11:27;12.80;;;8.45;;
21392;SDS011;10857;52.228;21.026;2023-05-14T07:13:54;16.52;;;7.82;;
21392;SDS011;10857;52.228;21.026;2023-05-14T07:16:22;13.15;;;8.90;;
21392;SDS011;10857;52.228;21.026;2023-05-14T07:18:50;13.93;;;7.88;;
21392;SDS011;10857;52.228;21.026;2023-05-14T07:21:22;14.93;;;7.97;;
21392;SDS011;10857;52.228;21.026;2023-05-14T07:23:49;11.75;;;7.00;;
21392;SDS011;10857;52.228;21.026;2023-05-14T07:26:17;12.55;;;6.95;;
21392;SDS011;10857;52.228;21.026;2023-05-14T07:28:44;12.52;;;7.20;;
21392;SDS011;10857;52.228;21.026;2023-05-14T07:31:14;10.55;;;6.75;;
21392;SDS011;10857;52.228;21.026;2023-05-14T07:33:41;12.40;;;6.85;;
21392;SDS011;10857;52.228;21.026;2023-05-14T07:36:08;11.77;;;6.32;;
21392;SDS011;10857;52.228;21.026;2023-05-14T07:38:40;13.85;;;6.15;;
21392;SDS011;10857;52.228;21.026;2023-05-14T07:41:07;8.07;;;5.20;;
21392;SDS011;10857;52.228;21.026;2023-05-14T07:43:36;12.55;;;6.55;;
21392;SDS011;10857;52.228;21.026;2023-05-14T07:46:05;13.25;;;7.20;;
21392;SDS011;10857;52.228;21.026;2023-05-14T07:48:32;11.98;;;5.82;;
21392;SDS011;10857;52.228;21.026;2023-05-14T07:51:00;11.70;;;5.78;;
21392;SDS011;10857;52.228;21.026;2023-05-14T07:53:28;9.38;;;5.57;;
21392;SDS011;10857;52.228;21.026;2023-05-14T07:55:55;9.82;;;5.57;;
21392;SDS011;10857;52.228;21.026;2023-05-14T07:58:25;13.02;;;5.60;;
21392;SDS011;10857;52.228;21.026;2023-05-14T08:00:54;12.63;;;5.68;;
21392;SDS011;10857;52.228;21.026;2023-05-14T08:03:24;8.98;;;5.22;;
21392;SDS011;10857;52.228;21.026;2023-05-14T08:05:51;12.57;;;5.70;;
21392;SDS011;10857;52.228;21.026;2023-05-14T08:08:19;8.70;;;5.55;;
21392;SDS011;10857;52.228;21.026;2023-05-14T08:10:46;9.25;;;5.90;;
21392;SDS011;10857;52.228;21.026;2023-05-14T08:13:14;9.25;;;5.50;;
21392;SDS011;10857;52.228;21.026;2023-05-14T08:15:41;14.23;;;6.15;;
21392;SDS011;10857;52.228;21.026;2023-05-14T08:18:08;11.10;;;6.05;;
21392;SDS011;10857;52.228;21.026;2023-05-14T08:20:36;10.98;;;5.80;;
21392;SDS011;10857;52.228;21.026;2023-05-14T08:23:03;10.90;;;5.95;;
21392;SDS011;10857;52.228;21.026;2023-05-14T08:25:34;9.43;;;5.97;;
21392;SDS011;10857;52.228;21.026;2023-05-14T08:28:01;12.63;;;6.18;;
21392;SDS011;10857;52.228;21.026;2023-05-14T08:30:30;10.52;;;5.70;;
21392;SDS011;10857;52.228;21.026;2023-05-14T08:33:02;11.02;;;6.13;;
21392;SDS011;10857;52.228;21.026;2023-05-14T08:35:32;9.25;;;6.53;;
21392;SDS011;10857;52.228;21.026;2023-05-14T08:38:00;9.07;;;6.22;;
21392;SDS011;10857;52.228;21.026;2023-05-14T08:40:27;8.50;;;6.00;;
21392;SDS011;10857;52.228;21.026;2023-05-14T08:42:57;8.23;;;6.03;;
21392;SDS011;10857;52.228;21.026;2023-05-14T08:48:28;8.85;;;5.10;;
21392;SDS011;10857;52.228;21.026;2023-05-14T08:51:06;8.30;;;4.60;;
21392;SDS011;10857;52.228;21.026;2023-05-14T08:53:35;14.88;;;5.15;;
21392;SDS011;10857;52.228;21.026;2023-05-14T08:56:03;8.32;;;4.78;;
21392;SDS011;10857;52.228;21.026;2023-05-14T08:58:32;8.95;;;5.13;;
21392;SDS011;10857;52.228;21.026;2023-05-14T09:01:01;8.55;;;4.57;;
21392;SDS011;10857;52.228;21.026;2023-05-14T09:03:30;7.35;;;4.72;;
21392;SDS011;10857;52.228;21.026;2023-05-14T09:05:58;8.55;;;4.40;;
21392;SDS011;10857;52.228;21.026;2023-05-14T09:08:37;8.38;;;4.10;;
21392;SDS011;10857;52.228;21.026;2023-05-14T09:11:08;7.43;;;4.18;;
21392;SDS011;10857;52.228;21.026;2023-05-14T09:13:48;7.93;;;4.55;;
21392;SDS011;10857;52.228;21.026;2023-05-14T09:16:17;5.65;;;4.20;;
21392;SDS011;10857;52.228;21.026;2023-05-14T09:18:56;6.05;;;3.50;;
21392;SDS011;10857;52.228;21.026;2023-05-14T09:21:28;8.00;;;4.38;;
21392;SDS011;10857;52.228;21.026;2023-05-14T09:24:00;6.68;;;4.10;;
21392;SDS011;10857;52.228;21.026;2023-05-14T09:27:04;9.20;;;3.80;;
21392;SDS011;10857;52.228;21.026;2023-05-14T09:29:38;10.75;;;4.20;;
21392;SDS011;10857;52.228;21.026;2023-05-14T09:32:10;8.10;;;3.67;;
21392;SDS011;10857;52.228;21.026;2023-05-14T09:34:43;8.13;;;4.30;;
21392;SDS011;10857;52.228;21.026;2023-05-14T09:37:10;8.93;;;5.85;;
21392;SDS011;10857;52.228;21.026;2023-05-14T09:39:38;12.30;;;6.65;;
21392;SDS011;10857;52.228;21.026;2023-05-14T09:42:07;5.93;;;4.10;;
21392;SDS011;10857;52.228;21.026;2023-05-14T09:44:37;11.35;;;6.13;;
21392;SDS011;10857;52.228;21.026;2023-05-14T09:47:08;7.90;;;4.15;;
21392;SDS011;10857;52.228;21.026;2023-05-14T09:49:36;5.28;;;3.50;;
21392;SDS011;10857;52.228;21.026;2023-05-14T09:52:05;5.22;;;3.35;;
21392;SDS011;10857;52.228;21.026;2023-05-14T09:54:33;5.18;;;3.80;;
21392;SDS011;10857;52.228;21.026;2023-05-14T09:57:19;6.13;;;3.92;;
21392;SDS011;10857;52.228;21.026;2023-05-14T09:59:53;7.07;;;4.18;;
21392;SDS011;10857;52.228;21.026;2023-05-14T10:02:24;9.30;;;4.40;;
21392;SDS011;10857;52.228;21.026;2023-05-14T10:04:59;5.93;;;3.60;;
21392;SDS011;10857;52.228;21.026;2023-05-14T10:07:45;5.60;;;3.80;;
21392;SDS011;10857;52.228;21.026;2023-05-14T10:10:19;6.22;;;3.83;;
21392;SDS011;10857;52.228;21.026;2023-05-14T10:12:57;5.43;;;3.58;;
21392;SDS011;10857;52.228;21.026;2023-05-14T10:18:23;8.13;;;4.10;;
21392;SDS011;10857;52.228;21.026;2023-05-14T10:20:59;6.93;;;3.60;;
21392;SDS011;10857;52.228;21.026;2023-05-14T10:23:35;5.38;;;3.75;;
21392;SDS011;10857;52.228;21.026;2023-05-14T10:26:04;5.13;;;3.80;;
21392;SDS011;10857;52.228;21.026;2023-05-14T10:28:34;9.70;;;3.60;;
21392;SDS011;10857;52.228;21.026;2023-05-14T10:31:04;7.72;;;3.72;;
21392;SDS011;10857;52.228;21.026;2023-05-14T10:33:47;4.32;;;3.22;;
21392;SDS011;10857;52.228;21.026;2023-05-14T10:36:17;5.90;;;3.55;;
21392;SDS011;10857;52.228;21.026;2023-05-14T10:38:46;7.97;;;3.70;;
21392;SDS011;10857;52.228;21.026;2023-05-14T10:41:25;8.88;;;4.00;;
21392;SDS011;10857;52.228;21.026;2023-05-14T10:43:53;8.02;;;3.60;;
21392;SDS011;10857;52.228;21.026;2023-05-14T10:46:23;9.18;;;3.72;;
21392;SDS011;10857;52.228;21.026;2023-05-14T10:48:51;6.82;;;3.60;;
21392;SDS011;10857;52.228;21.026;2023-05-14T10:51:20;5.72;;;3.50;;
21392;SDS011;10857;52.228;21.026;2023-05-14T10:53:54;7.20;;;3.75;;
21392;SDS011;10857;52.228;21.026;2023-05-14T10:56:26;6.13;;;3.95;;
21392;SDS011;10857;52.228;21.026;2023-05-14T10:58:56;9.73;;;3.80;;
21392;SDS011;10857;52.228;21.026;2023-05-14T11:01:28;6.70;;;3.97;;
21392;SDS011;10857;52.228;21.026;2023-05-14T11:03:58;6.05;;;3.60;;
21392;SDS011;10857;52.228;21.026;2023-05-14T11:06:33;7.65;;;3.63;;
21392;SDS011;10857;52.228;21.026;2023-05-14T11:09:09;8.48;;;3.78;;
21392;SDS011;10857;52.228;21.026;2023-05-14T11:11:46;6.88;;;3.88;;
21392;SDS011;10857;52.228;21.026;2023-05-14T11:14:14;5.78;;;3.60;;
21392;SDS011;10857;52.228;21.026;2023-05-14T11:16:41;6.97;;;3.70;;
21392;SDS011;10857;52.228;21.026;2023-05-14T11:19:12;9.65;;;3.67;;
21392;SDS011;10857;52.228;21.026;2023-05-14T11:21:42;7.28;;;3.53;;
21392;SDS011;10857;52.228;21.026;2023-05-14T11:24:13;7.38;;;3.85;;
21392;SDS011;10857;52.228;21.026;2023-05-14T11:26:46;4.35;;;3.35;;
21392;SDS011;10857;52.228;21.026;2023-05-14T11:29:18;10.60;;;3.70;;
21392;SDS011;10857;52.228;21.026;2023-05-14T11:31:48;9.43;;;3.80;;
21392;SDS011;10857;52.228;21.026;2023-05-14T11:34:33;6.07;;;3.40;;
21392;SDS011;10857;52.228;21.026;2023-05-14T11:37:03;5.50;;;3.67;;
21392;SDS011;10857;52.228;21.026;2023-05-14T11:39:34;4.10;;;3.35;;
21392;SDS011;10857;52.228;21.026;2023-05-14T11:42:09;6.60;;;3.58;;
21392;SDS011;10857;52.228;21.026;2023-05-14T11:44:38;3.97;;;3.42;;
21392;SDS011;10857;52.228;21.026;2023-05-14T11:47:08;6.97;;;3.30;;
21392;SDS011;10857;52.228;21.026;2023-05-14T11:49:38;7.00;;;3.40;;
21392;SDS011;10857;52.228;21.026;2023-05-14T11:52:10;4.80;;;3.22;;
21392;SDS011;10857;52.228;21.026;2023-05-14T11:54:42;7.55;;;3.30;;
21392;SDS011;10857;52.228;21.026;2023-05-14T11:57:11;6.28;;;3.47;;
21392;SDS011;10857;52.228;21.026;2023-05-14T11:59:39;6.35;;;3.35;;
21392;SDS011;10857;52.228;21.026;2023-05-14T12:02:13;6.43;;;3.65;;
21392;SDS011;10857;52.228;21.026;2023-05-14T12:04:43;6.57;;;3.17;;
21392;SDS011;10857;52.228;21.026;2023-05-14T12:07:15;4.68;;;3.15;;
21392;SDS011;10857;52.228;21.026;2023-05-14T12:09:47;6.57;;;3.92;;
21392;SDS011;10857;52.228;21.026;2023-05-14T12:12:18;8.13;;;3.28;;
21392;SDS011;10857;52.228;21.026;2023-05-14T12:14:47;6.93;;;3.30;;
21392;SDS011;10857;52.228;21.026;2023-05-14T12:17:18;5.78;;;3.78;;
21392;SDS011;10857;52.228;21.026;2023-05-14T12:19:48;8.05;;;3.47;;
21392;SDS011;10857;52.228;21.026;2023-05-14T12:22:21;9.55;;;3.38;;
21392;SDS011;10857;52.228;21.026;2023-05-14T12:24:56;5.22;;;3.40;;
21392;SDS011;10857;52.228;21.026;2023-05-14T12:27:25;9.38;;;3.20;;
21392;SDS011;10857;52.228;21.026;2023-05-14T12:30:05;6.22;;;3.40;;
21392;SDS011;10857;52.228;21.026;2023-05-14T12:32:36;5.95;;;3.40;;
21392;SDS011;10857;52.228;21.026;2023-05-14T12:35:10;5.07;;;3.20;;
21392;SDS011;10857;52.228;21.026;2023-05-14T12:37:37;5.47;;;3.28;;
21392;SDS011;10857;52.228;21.026;2023-05-14T12:40:06;5.38;;;2.90;;
21392;SDS011;10857;52.228;21.026;2023-05-14T12:42:39;6.28;;;3.35;;
21392;SDS011;10857;52.228;21.026;2023-05-14T12:45:06;4.88;;;3.03;;
21392;SDS011;10857;52.228;21.026;2023-05-14T12:47:34;6.30;;;3.30;;
21392;SDS011;10857;52.228;21.026;2023-05-14T12:50:04;7.97;;;3.15;;
21392;SDS011;10857;52.228;21.026;2023-05-14T12:52:32;8.18;;;3.50;;
21392;SDS011;10857;52.228;21.026;2023-05-14T12:55:06;6.38;;;3.15;;
21392;SDS011;10857;52.228;21.026;2023-05-14T12:57:36;7.28;;;3.33;;
21392;SDS011;10857;52.228;21.026;2023-05-14T13:00:09;6.65;;;3.17;;
21392;SDS011;10857;52.228;21.026;2023-05-14T13:02:51;5.32;;;3.55;;
21392;SDS011;10857;52.228;21.026;2023-05-14T15:55:39;7.38;;;3.63;;
21392;SDS011;10857;52.228;21.026;2023-05-14T15:58:06;5.80;;;3.28;;
21392;SDS011;10857;52.228;21.026;2023-05-14T16:00:33;6.00;;;3.50;;
21392;SDS011;10857;52.228;21.026;2023-05-14T16:03:01;6.40;;;3.53;;
21392;SDS011;10857;52.228;21.026;2023-05-14T16:05:28;6.57;;;3.10;;
21392;SDS011;10857;52.228;21.026;2023-05-14T16:07:55;5.70;;;3.22;;
21392;SDS011;10857;52.228;21.026;2023-05-14T16:10:22;4.43;;;3.38;;
21392;SDS011;10857;52.228;21.026;2023-05-14T16:12:50;5.82;;;3.38;;
21392;SDS011;10857;52.228;21.026;2023-05-14T16:15:16;7.72;;;3.30;;
21392;SDS011;10857;52.228;21.026;2023-05-14T16:17:43;5.15;;;3.05;;
21392;SDS011;10857;52.228;21.026;2023-05-14T16:20:11;5.03;;;3.22;;
21392;SDS011;10857;52.228;21.026;2023-05-14T16:22:37;5.50;;;3.40;;
21392;SDS011;10857;52.228;21.026;2023-05-14T16:25:04;6.68;;;3.22;;
21392;SDS011;10857;52.228;21.026;2023-05-14T16:27:31;6.13;;;3.30;;
21392;SDS011;10857;52.228;21.026;2023-05-14T16:29:59;8.40;;;2.97;;
21392;SDS011;10857;52.228;21.026;2023-05-14T16:32:26;6.88;;;3.22;;
21392;SDS011;10857;52.228;21.026;2023-05-14T16:34:53;7.72;;;3.67;;
21392;SDS011;10857;52.228;21.026;2023-05-14T16:37:21;5.55;;;3.40;;
21392;SDS011;10857;52.228;21.026;2023-05-14T16:39:48;4.45;;;3.17;;
21392;SDS011;10857;52.228;21.026;2023-05-14T16:42:15;5.30;;;3.30;;
21392;SDS011;10857;52.228;21.026;2023-05-14T16:44:42;7.38;;;3.30;;
21392;SDS011;10857;52.228;21.026;2023-05-14T16:47:09;5.15;;;3.15;;
21392;SDS011;10857;52.228;21.026;2023-05-14T16:49:36;5.75;;;3.40;;
21392;SDS011;10857;52.228;21.026;2023-05-14T16:52:04;5.85;;;3.35;;
21392;SDS011;10857;52.228;21.026;2023-05-14T16:54:31;7.05;;;3.25;;
21392;SDS011;10857;52.228;21.026;2023-05-14T16:56:58;10.88;;;3.55;;
21392;SDS011;10857;52.228;21.026;2023-05-14T16:59:25;12.25;;;4.10;;
21392;SDS011;10857;52.228;21.026;2023-05-14T17:01:52;5.10;;;3.40;;
21392;SDS011;10857;52.228;21.026;2023-05-14T17:04:19;7.78;;;3.50;;
21392;SDS011;10857;52.228;21.026;2023-05-14T17:06:46;9.27;;;3.60;;
21392;SDS011;10857;52.228;21.026;2023-05-14T17:09:14;5.60;;;4.00;;
21392;SDS011;10857;52.228;21.026;2023-05-14T17:11:42;6.75;;;3.60;;
21392;SDS011;10857;52.228;21.026;2023-05-14T17:14:09;6.25;;;3.63;;
21392;SDS011;10857;52.228;21.026;2023-05-14T17:16:36;7.18;;;3.70;;
21392;SDS011;10857;52.228;21.026;2023-05-14T17:19:05;5.18;;;3.53;;
21392;SDS011;10857;52.228;21.026;2023-05-14T17:21:33;6.97;;;3.83;;
21392;SDS011;10857;52.228;21.026;2023-05-14T17:24:00;5.13;;;3.63;;
21392;SDS011;10857;52.228;21.026;2023-05-14T17:26:27;6.57;;;3.70;;
21392;SDS011;10857;52.228;21.026;2023-05-14T17:28:54;7.30;;;4.07;;
21392;SDS011;10857;52.228;21.026;2023-05-14T17:31:22;9.63;;;4.00;;
21392;SDS011;10857;52.228;21.026;2023-05-14T17:33:49;9.88;;;3.75;;
21392;SDS011;10857;52.228;21.026;2023-05-14T17:36:17;7.90;;;3.78;;
21392;SDS011;10857;52.228;21.026;2023-05-14T17:38:48;4.72;;;3.53;;
21392;SDS011;10857;52.228;21.026;2023-05-14T17:41:16;6.10;;;3.35;;